Time;durP1;ratioP1;P1;durP2;ratioP2;P2;SDS_P1;SDS_P2;PMS_P1;PMS_P2;Temp;Humidity;BMP_temperature;BMP_pressure;BME280_temperature;BME280_humidity;BME280_pressure;Samples;Min_cycle;Max_cycle;Signal;HPM_P1;HPM_P2
2021/08/20 00:00:07;;;;;;;6.30;5.62;;;;;;;25.46;45.79;99453.52;1807301;77;20990;-65
2021/08/20 00:02:37;;;;;;;6.55;5.95;;;;;;;25.46;45.79;99460.33;1811069;77;22359;-64
2021/08/20 00:05:05;;;;;;;6.80;6.10;;;;;;;25.45;45.78;99458.13;1786044;77;21359;-63
2021/08/20 00:07:32;;;;;;;9.60;6.28;;;;;;;25.42;45.73;99447.81;1794000;77;21225;-65
2021/08/20 00:10:00;;;;;;;6.37;5.78;;;;;;;25.44;45.76;99455.16;1819831;77;21205;-64
2021/08/20 00:12:27;;;;;;;6.72;6.12;;;;;;;25.42;45.74;99450.53;1796946;77;21053;-64
2021/08/20 00:14:57;;;;;;;8.13;5.80;;;;;;;25.42;45.65;99446.45;1805401;77;21326;-64
2021/08/20 00:17:24;;;;;;;7.10;5.47;;;;;;;25.42;45.67;99449.70;1806857;77;21082;-65
2021/08/20 00:19:52;;;;;;;7.08;6.08;;;;;;;25.40;45.69;99445.91;1812451;77;20998;-65
2021/08/20 00:22:22;;;;;;;8.25;5.92;;;;;;;25.40;45.63;99445.08;1809710;77;21060;-64
2021/08/20 00:24:49;;;;;;;7.72;6.55;;;;;;;25.39;45.52;99444.82;1819948;77;21596;-64
2021/08/20 00:27:19;;;;;;;6.70;6.10;;;;;;;25.38;45.48;99445.37;1804284;77;20962;-64
2021/08/20 00:29:47;;;;;;;7.35;5.92;;;;;;;25.38;45.42;99446.73;1792195;77;21536;-63
2021/08/20 00:32:16;;;;;;;6.58;5.90;;;;;;;25.38;45.42;99454.05;1824431;76;21494;-63
2021/08/20 00:34:43;;;;;;;23.18;19.73;;;;;;;25.38;45.42;99455.41;1811927;77;21025;-62
2021/08/20 00:37:09;;;;;;;11.50;10.08;;;;;;;25.36;45.37;99452.96;1808433;77;21147;-64
2021/08/20 00:39:39;;;;;;;10.20;7.30;;;;;;;25.35;45.41;99452.70;1814590;77;21034;-63
2021/08/20 00:42:09;;;;;;;8.55;6.83;;;;;;;25.34;45.39;99456.50;1827651;77;20999;-63
2021/08/20 00:44:37;;;;;;;7.67;6.87;;;;;;;25.33;45.31;99463.04;1804123;77;21486;-63
2021/08/20 00:47:05;;;;;;;7.33;6.62;;;;;;;25.33;45.26;99466.31;1791372;76;21068;-64
2021/08/20 00:49:32;;;;;;;6.92;6.28;;;;;;;25.31;45.22;99462.50;1800953;79;22068;-63
2021/08/20 00:51:59;;;;;;;8.88;6.75;;;;;;;25.33;45.21;99467.12;1794436;78;21128;-64
2021/08/20 00:54:26;;;;;;;6.60;6.00;;;;;;;25.31;45.20;99463.30;1799818;77;20991;-65
2021/08/20 00:56:53;;;;;;;7.53;6.72;;;;;;;25.31;45.16;99471.46;1824613;77;21033;-65
2021/08/20 00:59:24;;;;;;;7.72;6.35;;;;;;;25.30;45.16;99480.72;1796005;77;21125;-64
2021/08/20 01:01:51;;;;;;;6.47;5.87;;;;;;;25.31;45.19;99482.89;1808999;77;21074;-65
2021/08/20 01:04:17;;;;;;;8.40;6.95;;;;;;;25.29;45.10;99480.44;1801686;77;21037;-65
2021/08/20 01:06:44;;;;;;;6.95;6.20;;;;;;;25.28;45.14;99484.26;1798298;77;21495;-64
2021/08/20 01:09:10;;;;;;;7.65;5.70;;;;;;;25.28;45.05;99484.26;1815658;77;21073;-64
2021/08/20 01:11:38;;;;;;;6.00;5.40;;;;;;;25.28;45.02;99487.50;1807887;77;21469;-65
2021/08/20 01:14:07;;;;;;;7.30;6.60;;;;;;;25.27;45.06;99488.60;1809614;76;21081;-65
2021/08/20 01:16:35;;;;;;;7.50;6.22;;;;;;;25.27;45.01;99489.95;1827041;77;21993;-65
2021/08/20 01:19:04;;;;;;;7.33;5.97;;;;;;;25.26;45.05;99485.05;1830971;76;21112;-64
2021/08/20 01:21:32;;;;;;;6.30;5.70;;;;;;;25.25;45.07;99494.30;1812016;77;21033;-64
2021/08/20 01:24:01;;;;;;;6.78;6.05;;;;;;;25.25;45.02;99497.57;1799207;77;21007;-65
2021/08/20 01:26:30;;;;;;;6.60;6.00;;;;;;;25.24;44.96;99496.73;1817129;77;21060;-65
2021/08/20 01:28:57;;;;;;;7.00;6.30;;;;;;;25.24;44.94;99500.81;1809784;77;21470;-63
2021/08/20 01:31:25;;;;;;;6.62;5.95;;;;;;;25.23;44.94;99506.55;1813611;76;21014;-64
2021/08/20 01:33:54;;;;;;;6.35;5.80;;;;;;;25.21;44.98;99509.50;1781011;78;21005;-65
2021/08/20 01:36:24;;;;;;;5.87;5.28;;;;;;;25.21;44.96;99509.50;1791668;77;21620;-65
2021/08/20 01:38:55;;;;;;;6.92;5.35;;;;;;;25.20;44.94;99511.92;1805387;77;21010;-64
2021/08/20 01:41:25;;;;;;;5.90;5.40;;;;;;;25.20;44.96;99519.27;1810136;77;21057;-64
2021/08/20 01:43:52;;;;;;;6.17;5.58;;;;;;;25.18;44.93;99516.81;1807213;77;21048;-64
2021/08/20 01:46:19;;;;;;;6.35;5.75;;;;;;;25.18;44.91;99514.66;1811697;77;21074;-64
2021/08/20 01:48:50;;;;;;;6.28;5.62;;;;;;;25.17;44.90;99517.92;1837804;77;21042;-64
2021/08/20 01:51:18;;;;;;;5.75;5.25;;;;;;;25.17;44.82;99513.00;1821816;77;21009;-65
2021/08/20 01:53:46;;;;;;;7.03;5.90;;;;;;;25.16;44.86;99520.91;1809177;77;21108;-65
2021/08/20 01:56:28;;;;;;;6.45;5.85;;;;;;;25.15;44.93;99520.61;1812962;77;21061;-64
2021/08/20 01:58:55;;;;;;;6.65;5.80;;;;;;;25.14;44.91;99518.45;1816453;77;21053;-64
2021/08/20 02:01:25;;;;;;;5.80;5.20;;;;;;;25.13;44.96;99519.55;1817384;77;21086;-64
2021/08/20 02:03:52;;;;;;;6.80;5.90;;;;;;;25.12;44.99;99517.91;1788307;78;21140;-64
2021/08/20 02:06:21;;;;;;;5.87;5.37;;;;;;;25.11;45.02;99520.33;1778774;79;21131;-64
2021/08/20 02:08:49;;;;;;;6.70;5.60;;;;;;;25.09;45.03;99516.55;1791314;77;21652;-64
2021/08/20 02:11:16;;;;;;;6.10;5.30;;;;;;;25.08;45.14;99520.34;1813897;77;21054;-66
2021/08/20 02:13:44;;;;;;;6.28;5.67;;;;;;;25.08;45.12;99520.89;1809396;77;21044;-64
2021/08/20 02:16:13;;;;;;;7.03;5.12;;;;;;;25.07;45.12;99521.44;1782557;77;21080;-64
2021/08/20 02:18:40;;;;;;;6.12;5.55;;;;;;;25.06;45.11;99514.91;1782594;77;21558;-64
2021/08/20 02:21:08;;;;;;;7.12;5.55;;;;;;;25.06;45.10;99523.88;1805813;77;21011;-65
2021/08/20 02:23:38;;;;;;;5.75;5.22;;;;;;;25.07;45.17;99524.68;1812477;77;21534;-64
2021/08/20 02:26:06;;;;;;;6.70;5.28;;;;;;;25.06;45.22;99523.06;1798808;78;21040;-64
2021/08/20 02:28:33;;;;;;;6.15;5.55;;;;;;;25.06;45.22;99523.06;1815283;77;21064;-64
2021/08/20 02:31:00;;;;;;;5.35;4.85;;;;;;;25.04;45.09;99520.61;1805779;77;22540;-64
2021/08/20 02:33:26;;;;;;;5.42;4.92;;;;;;;25.04;45.06;99521.97;1836462;77;21045;-63
2021/08/20 02:35:54;;;;;;;6.35;5.70;;;;;;;25.04;45.11;99526.59;1788461;78;21028;-64
2021/08/20 02:38:20;;;;;;;5.12;4.62;;;;;;;25.03;45.11;99523.59;1755778;79;21080;-64
2021/08/20 02:40:47;;;;;;;5.20;4.70;;;;;;;25.03;45.13;99524.95;1768388;79;21034;-66
2021/08/20 02:43:14;;;;;;;7.60;5.12;;;;;;;25.03;45.13;99526.30;1765632;79;21158;-63
2021/08/20 02:45:41;;;;;;;5.47;4.97;;;;;;;25.01;45.14;99521.69;1771886;79;21498;-64
2021/08/20 02:48:07;;;;;;;5.58;5.08;;;;;;;25.00;45.16;99527.67;1752544;79;21025;-63
2021/08/20 02:50:34;;;;;;;5.92;5.40;;;;;;;25.00;45.13;99527.67;1758473;79;21084;-64
2021/08/20 02:53:03;;;;;;;6.03;5.42;;;;;;;25.00;45.14;99529.58;1744918;79;21056;-64
2021/08/20 02:55:33;;;;;;;5.65;5.10;;;;;;;24.99;45.15;99532.81;1773983;79;21996;-64
2021/08/20 02:57:59;;;;;;;5.30;4.85;;;;;;;24.99;45.03;99534.73;1784602;79;21007;-63
2021/08/20 03:00:28;;;;;;;5.55;4.95;;;;;;;24.98;45.15;99537.19;1756165;79;21047;-64
2021/08/20 03:02:56;;;;;;;5.08;4.58;;;;;;;24.97;45.12;99535.53;1760343;80;21065;-63
2021/08/20 03:05:23;;;;;;;5.00;4.60;;;;;;;24.96;45.09;99538.00;1764621;80;21081;-63
2021/08/20 03:07:51;;;;;;;5.83;5.22;;;;;;;24.96;45.03;99533.92;1764755;79;21010;-65
2021/08/20 03:10:18;;;;;;;5.60;5.00;;;;;;;24.95;45.02;99537.16;1777302;79;21573;-64
2021/08/20 03:12:45;;;;;;;5.08;4.58;;;;;;;24.96;45.05;99546.14;1768021;79;20982;-64
2021/08/20 03:15:12;;;;;;;5.30;4.75;;;;;;;24.95;45.10;99549.38;1755836;80;21004;-63
2021/08/20 03:17:39;;;;;;;6.17;5.30;;;;;;;24.95;45.09;99550.74;1761172;80;21632;-64
2021/08/20 03:20:11;;;;;;;4.92;4.53;;;;;;;24.95;45.04;99548.58;1745082;80;21324;-64
2021/08/20 03:22:38;;;;;;;4.95;4.45;;;;;;;24.95;45.07;99551.30;1779872;78;21032;-63
2021/08/20 03:25:08;;;;;;;5.65;4.65;;;;;;;24.95;45.10;99551.30;1751699;79;21550;-63
2021/08/20 03:27:35;;;;;;;5.00;4.50;;;;;;;24.96;45.05;99559.73;1773601;78;21001;-64
2021/08/20 03:30:06;;;;;;;5.15;4.65;;;;;;;24.95;45.07;99558.09;1759581;79;21374;-64
2021/08/20 03:32:34;;;;;;;4.92;4.22;;;;;;;24.94;44.92;99554.56;1754770;79;21123;-64
2021/08/20 03:35:03;;;;;;;5.72;4.97;;;;;;;24.94;45.02;99549.13;1796068;77;21069;-63
2021/08/20 03:37:30;;;;;;;5.28;4.70;;;;;;;24.93;44.98;99549.64;1791427;77;21037;-63
2021/08/20 03:39:59;;;;;;;4.83;4.33;;;;;;;24.87;44.34;99553.44;1797737;77;21057;-64
2021/08/20 03:42:25;;;;;;;6.92;5.00;;;;;;;24.82;44.89;99553.44;1813859;77;21045;-64
2021/08/20 03:45:11;;;;;;;4.95;4.50;;;;;;;24.80;45.09;99550.18;1807352;77;21121;-64
2021/08/20 03:47:39;;;;;;;5.70;4.55;;;;;;;24.81;45.22;99555.88;1793571;78;21540;-64
2021/08/20 03:50:09;;;;;;;4.90;4.47;;;;;;;24.82;45.21;99558.87;1784498;78;20973;-64
2021/08/20 03:52:37;;;;;;;5.00;4.60;;;;;;;24.82;45.21;99556.67;1771366;77;21494;-65
2021/08/20 03:55:07;;;;;;;6.53;4.90;;;;;;;24.83;45.23;99557.77;1821627;77;20985;-64
2021/08/20 03:57:36;;;;;;;5.78;4.67;;;;;;;24.84;45.21;99555.87;1806561;77;22639;-64
2021/08/20 04:00:06;;;;;;;5.10;4.60;;;;;;;24.84;45.15;99560.78;1800663;76;21477;-64
2021/08/20 04:02:36;;;;;;;5.55;4.80;;;;;;;24.87;45.17;99558.87;1804426;77;21100;-64
2021/08/20 04:05:05;;;;;;;7.03;5.05;;;;;;;24.87;45.17;99560.23;1812465;77;21056;-63
2021/08/20 04:07:46;;;;;;;4.72;4.33;;;;;;;24.87;45.17;99557.52;1808356;77;21675;-63
2021/08/20 04:10:17;;;;;;;5.35;4.85;;;;;;;24.88;45.18;99560.52;1792160;77;21123;-64
2021/08/20 04:12:50;;;;;;;;;;;;;;;24.89;45.12;99560.78;1797815;77;21624;-62
2021/08/20 04:15:29;;;;;;;8.48;4.58;;;;;;;24.90;45.04;99567.86;1785794;78;20144;-63
2021/08/20 04:17:56;;;;;;;4.42;4.03;;;;;;;24.88;45.08;99562.42;1819882;77;21478;-65
2021/08/20 04:20:23;;;;;;;4.97;4.40;;;;;;;24.89;44.99;99562.14;1812549;77;21029;-65
2021/08/20 04:22:53;;;;;;;8.35;4.70;;;;;;;24.91;45.02;99558.61;1801981;77;21006;-65
2021/08/20 04:25:23;;;;;;;6.25;4.70;;;;;;;24.92;44.87;99562.97;1811870;77;21003;-64
2021/08/20 04:27:54;;;;;;;4.62;4.22;;;;;;;24.95;44.79;99559.44;1803077;77;21612;-64
2021/08/20 04:30:40;;;;;;;4.60;4.20;;;;;;;24.96;44.83;99559.19;1754288;80;21077;-66
2021/08/20 04:33:24;;;;;;;4.90;4.45;;;;;;;24.96;44.71;99561.91;1756867;80;21226;-66
2021/08/20 04:36:11;;;;;;;5.42;4.83;;;;;;;24.96;44.70;99559.73;1785787;77;21066;-65
2021/08/20 04:38:43;;;;;;;5.20;4.70;;;;;;;24.96;44.76;99568.70;1812098;77;21038;-65
2021/08/20 04:41:15;;;;;;;4.97;4.47;;;;;;;24.97;44.62;99572.22;1817651;77;20999;-64
2021/08/20 04:43:46;;;;;;;6.42;4.58;;;;;;;24.97;44.60;99567.59;1815055;77;21057;-65
2021/08/20 04:46:15;;;;;;;4.90;4.42;;;;;;;24.98;44.69;99563.80;1785107;77;21033;-65
2021/08/20 04:48:44;;;;;;;5.03;4.47;;;;;;;25.01;44.68;99569.23;1801968;77;21120;-66
2021/08/20 04:51:11;;;;;;;5.05;4.58;;;;;;;25.00;44.66;99564.35;1818749;77;21030;-66
2021/08/20 04:53:43;;;;;;;6.85;4.60;;;;;;;25.03;44.66;99565.16;1815843;77;21034;-66
2021/08/20 04:56:18;;;;;;;5.25;4.50;;;;;;;25.04;44.59;99568.72;1806788;77;21077;-67
2021/08/20 04:58:46;;;;;;;4.25;3.75;;;;;;;25.05;44.60;99568.45;1794687;77;21585;-66
2021/08/20 05:01:14;;;;;;;5.42;4.75;;;;;;;25.07;44.74;99568.16;1810789;76;21014;-64
2021/08/20 05:03:40;;;;;;;5.37;4.75;;;;;;;25.08;44.88;99563.02;1824588;77;21482;-64
2021/08/20 05:06:07;;;;;;;6.40;4.67;;;;;;;25.10;44.97;99563.02;1799633;77;21041;-64
2021/08/20 05:08:36;;;;;;;4.83;4.00;;;;;;;25.11;44.99;99566.02;1817672;77;20988;-64
2021/08/20 05:11:05;;;;;;;5.03;4.53;;;;;;;25.13;44.90;99569.83;1778099;77;21053;-63
2021/08/20 05:13:31;;;;;;;6.62;4.33;;;;;;;25.16;45.02;99566.56;1803717;77;21840;-64
2021/08/20 05:16:00;;;;;;;8.40;5.37;;;;;;;25.18;45.33;99567.10;1790802;77;21524;-64
2021/08/20 05:18:26;;;;;;;5.62;4.30;;;;;;;25.20;45.45;99570.37;1808102;77;21338;-64
2021/08/20 05:20:53;;;;;;;4.80;4.35;;;;;;;25.21;45.50;99570.66;1796438;77;21123;-63
2021/08/20 05:23:19;;;;;;;10.13;5.40;;;;;;;25.21;45.63;99573.92;1815525;77;20978;-64
2021/08/20 05:25:46;;;;;;;8.23;4.87;;;;;;;25.20;45.71;99570.37;1797711;77;21137;-65
2021/08/20 05:28:12;;;;;;;6.30;4.15;;;;;;;25.21;45.72;99565.77;1805691;77;21021;-64
2021/08/20 05:30:39;;;;;;;5.60;4.12;;;;;;;25.22;45.67;99572.30;1825820;77;21001;-63
2021/08/20 05:33:06;;;;;;;5.05;4.12;;;;;;;25.23;45.67;99569.88;1817126;77;21001;-63
2021/08/20 05:35:34;;;;;;;7.50;4.17;;;;;;;25.24;45.68;99565.24;1818767;77;21084;-65
2021/08/20 05:38:02;;;;;;;5.50;4.20;;;;;;;25.25;45.78;99568.25;1836279;77;21149;-66
2021/08/20 05:40:29;;;;;;;5.03;4.22;;;;;;;25.26;45.82;99561.71;1819641;77;21020;-64
2021/08/20 05:42:56;;;;;;;7.15;3.62;;;;;;;25.27;45.78;99565.53;1829612;76;21033;-65
2021/08/20 05:45:22;;;;;;;4.97;3.85;;;;;;;25.29;45.83;99566.07;1826109;77;21082;-64
2021/08/20 05:47:49;;;;;;;4.35;3.75;;;;;;;25.30;45.83;99562.28;1845746;77;21097;-64
2021/08/20 05:50:15;;;;;;;6.37;4.20;;;;;;;25.31;45.89;99562.53;1801513;78;21125;-64
2021/08/20 05:52:42;;;;;;;4.97;3.70;;;;;;;25.34;45.84;99569.88;1824002;77;21081;-65
2021/08/20 05:55:13;;;;;;;5.00;4.12;;;;;;;25.37;45.79;99567.99;1820538;77;21623;-64
2021/08/20 05:57:39;;;;;;;4.75;3.70;;;;;;;25.38;45.70;99560.93;1806579;78;20997;-65
2021/08/20 06:00:07;;;;;;;6.58;4.20;;;;;;;25.39;45.72;99559.83;1817156;78;21486;-64
2021/08/20 06:02:41;;;;;;;5.47;3.83;;;;;;;25.41;45.83;99558.20;1807105;78;22054;-64
2021/08/20 06:05:09;;;;;;;4.12;3.55;;;;;;;25.44;45.79;99561.72;1773585;78;21555;-64
2021/08/20 06:07:36;;;;;;;4.47;4.03;;;;;;;25.45;45.78;99560.65;1816954;78;21266;-65
2021/08/20 06:10:05;;;;;;;4.42;3.85;;;;;;;25.46;45.78;99560.94;1823118;78;21061;-65
2021/08/20 06:12:32;;;;;;;5.17;4.62;;;;;;;25.47;45.68;99556.56;1792083;77;21048;-63
2021/08/20 06:14:58;;;;;;;5.28;4.42;;;;;;;25.48;45.66;99566.37;1813440;77;21156;-66
2021/08/20 06:17:25;;;;;;;4.87;4.25;;;;;;;25.51;45.70;99570.44;1826320;77;21489;-65
2021/08/20 06:19:52;;;;;;;6.58;4.50;;;;;;;25.54;45.76;99571.82;1825903;77;21004;-67
2021/08/20 06:22:19;;;;;;;5.55;4.72;;;;;;;25.56;45.87;99574.53;1824715;77;21083;-66
2021/08/20 06:24:45;;;;;;;5.15;4.50;;;;;;;25.59;46.02;99571.80;1819927;76;21583;-65
2021/08/20 06:27:11;;;;;;;7.62;4.20;;;;;;;25.62;45.97;99568.55;1828209;77;21812;-64
2021/08/20 06:29:38;;;;;;;5.10;4.50;;;;;;;25.64;45.92;99568.55;1805641;77;21076;-64
2021/08/20 06:32:06;;;;;;;4.85;3.60;;;;;;;25.67;45.99;99568.53;1806296;77;21041;-67
2021/08/20 06:34:32;;;;;;;5.22;4.50;;;;;;;25.70;45.98;99562.56;1799873;77;21081;-67
2021/08/20 06:36:59;;;;;;;10.15;5.05;;;;;;;25.73;45.96;99561.19;1801897;77;21065;-66
2021/08/20 06:39:26;;;;;;;5.75;5.15;;;;;;;25.75;45.99;99557.65;1797912;78;21110;-68
2021/08/20 06:41:52;;;;;;;5.97;5.10;;;;;;;25.76;45.95;99552.49;1808863;77;21021;-67
2021/08/20 06:44:19;;;;;;;6.83;4.65;;;;;;;25.78;46.09;99558.48;1813657;77;21545;-66
2021/08/20 06:46:46;;;;;;;8.58;4.87;;;;;;;25.79;46.11;99560.93;1793524;78;21076;-67
2021/08/20 06:49:13;;;;;;;8.68;4.72;;;;;;;25.82;46.19;99558.20;1796948;79;21064;-67
2021/08/20 06:51:39;;;;;;;6.70;5.05;;;;;;;25.84;46.32;99564.18;1795224;78;21134;-66
2021/08/20 06:54:06;;;;;;;7.42;4.53;;;;;;;25.87;46.32;99560.92;1817602;77;20995;-64
2021/08/20 06:56:32;;;;;;;5.55;4.17;;;;;;;25.89;46.35;99558.19;1801180;78;21013;-66
2021/08/20 06:58:59;;;;;;;4.95;3.90;;;;;;;25.92;46.38;99554.13;1799536;77;21049;-66
2021/08/20 07:01:26;;;;;;;5.05;3.95;;;;;;;25.95;46.32;99555.50;1796875;76;21007;-66
2021/08/20 07:03:54;;;;;;;4.75;4.17;;;;;;;25.97;46.32;99561.48;1793778;78;21066;-68
2021/08/20 07:06:23;;;;;;;4.40;3.90;;;;;;;26.00;46.24;99566.36;1801621;77;21043;-68
2021/08/20 07:08:49;;;;;;;6.33;3.77;;;;;;;26.03;46.24;99563.10;1803366;77;21067;-67
2021/08/20 07:11:20;;;;;;;5.45;4.05;;;;;;;26.05;46.33;99566.36;1817887;77;21092;-66
2021/08/20 07:13:47;;;;;;;5.30;4.08;;;;;;;26.08;46.28;99567.19;1815268;77;21522;-65
2021/08/20 07:16:14;;;;;;;4.95;3.60;;;;;;;26.12;46.16;99568.82;1806922;77;21188;-66
2021/08/20 07:18:41;;;;;;;3.75;3.45;;;;;;;26.12;46.08;99570.98;1818073;77;21550;-67
2021/08/20 07:21:08;;;;;;;4.53;3.40;;;;;;;26.14;46.01;99573.44;1812129;77;21310;-68
2021/08/20 07:23:35;;;;;;;5.03;3.70;;;;;;;26.15;46.04;99571.78;1817856;77;21022;-68
2021/08/20 07:26:04;;;;;;;4.67;3.95;;;;;;;26.17;46.07;99568.23;1813574;77;21030;-66
2021/08/20 07:28:30;;;;;;;5.12;3.95;;;;;;;26.20;46.09;99568.25;1810368;77;21098;-69
2021/08/20 07:30:58;;;;;;;4.00;3.35;;;;;;;26.23;46.06;99566.31;1794370;78;21041;-65
2021/08/20 07:33:25;;;;;;;4.95;4.42;;;;;;;26.25;45.94;99566.86;1794097;77;21022;-61
2021/08/20 07:35:51;;;;;;;4.83;3.67;;;;;;;26.27;45.98;99571.51;1800351;78;21477;-64
2021/08/20 07:38:18;;;;;;;5.12;3.70;;;;;;;26.29;45.83;99566.59;1796120;78;21085;-64
2021/08/20 07:40:45;;;;;;;4.53;3.65;;;;;;;26.31;45.89;99569.86;1811892;77;21142;-64
2021/08/20 07:45:05;;;;;;;3.83;3.42;;;;;;;26.41;45.81;99560.84;1853038;76;24159;-69
2021/08/20 07:47:32;;;;;;;5.80;3.67;;;;;;;26.36;45.69;99563.02;1809734;77;20950;-64
2021/08/20 07:49:59;;;;;;;4.20;3.70;;;;;;;26.39;45.66;99562.48;1799439;78;21956;-66
2021/08/20 07:52:27;;;;;;;4.22;3.80;;;;;;;26.42;45.61;99554.28;1821988;78;21018;-66
2021/08/20 07:54:53;;;;;;;4.00;3.52;;;;;;;26.44;45.49;99557.02;1815758;77;20996;-66
2021/08/20 07:57:20;;;;;;;3.77;3.40;;;;;;;26.46;45.48;99558.08;1823247;77;21029;-68
2021/08/20 07:59:46;;;;;;;5.75;3.67;;;;;;;26.47;45.17;99561.90;1750989;80;21146;-68
2021/08/20 08:02:12;;;;;;;6.05;3.80;;;;;;;26.49;45.26;99562.44;1771941;78;21209;-69
2021/08/20 08:04:41;;;;;;;5.35;3.42;;;;;;;26.52;45.27;99552.08;1785744;78;21591;-65
2021/08/20 08:07:07;;;;;;;3.83;3.35;;;;;;;26.53;45.07;99560.53;1777418;78;21060;-67
2021/08/20 08:09:34;;;;;;;4.22;3.77;;;;;;;26.53;45.04;99546.35;1785475;79;21474;-66
2021/08/20 08:12:02;;;;;;;4.80;3.30;;;;;;;26.56;44.95;99543.08;1776713;78;21020;-68
2021/08/20 08:14:30;;;;;;;6.37;3.50;;;;;;;26.57;44.81;99548.78;1764303;79;21149;-67
2021/08/20 08:16:57;;;;;;;4.30;3.72;;;;;;;26.59;44.69;99544.45;1760472;80;21069;-67
2021/08/20 08:19:23;;;;;;;6.35;4.05;;;;;;;26.60;44.38;99542.02;1777247;80;21077;-67
2021/08/20 08:21:50;;;;;;;4.45;4.03;;;;;;;26.62;44.40;99545.27;1755131;80;21011;-68
2021/08/20 08:24:17;;;;;;;4.17;3.77;;;;;;;26.64;44.38;99543.89;1772842;80;21561;-68
2021/08/20 08:26:44;;;;;;;4.70;3.80;;;;;;;26.65;44.32;99544.14;1755313;80;21743;-71
2021/08/20 08:29:10;;;;;;;4.95;4.25;;;;;;;26.68;44.19;99542.79;1769499;80;21570;-67
2021/08/20 08:31:38;;;;;;;4.87;3.80;;;;;;;26.69;44.05;99547.12;1756208;80;21018;-68
2021/08/20 08:34:04;;;;;;;4.50;4.10;;;;;;;26.72;43.91;99543.05;1770112;80;21054;-68
2021/08/20 08:36:34;;;;;;;5.53;3.90;;;;;;;26.74;43.66;99547.11;1760661;80;21146;-68
2021/08/20 08:38:59;;;;;;;4.45;4.05;;;;;;;26.76;43.59;99547.64;1772440;80;21151;-67
2021/08/20 08:41:25;;;;;;;8.28;4.75;;;;;;;26.78;43.52;99546.81;1769857;80;21038;-68
2021/08/20 08:43:52;;;;;;;4.45;3.77;;;;;;;26.80;43.40;99540.53;1749953;80;21112;-67
2021/08/20 08:46:21;;;;;;;4.87;4.40;;;;;;;26.83;43.38;99545.44;1751111;81;21078;-67
2021/08/20 08:48:47;;;;;;;4.53;4.08;;;;;;;26.86;43.28;99545.41;1754572;81;21082;-69
2021/08/20 08:51:14;;;;;;;3.90;3.60;;;;;;;26.88;43.31;99546.75;1748717;81;21144;-68
2021/08/20 08:53:40;;;;;;;4.00;3.65;;;;;;;26.91;43.60;99543.20;1749335;80;21011;-68
2021/08/20 08:56:07;;;;;;;4.55;3.70;;;;;;;26.94;43.05;99549.46;1750494;79;20992;-67
2021/08/20 08:58:34;;;;;;;4.20;3.40;;;;;;;26.96;42.98;99545.34;1751459;80;21553;-70
2021/08/20 09:01:00;;;;;;;3.80;3.40;;;;;;;27.00;42.78;99546.97;1760709;80;21907;-69
2021/08/20 09:03:28;;;;;;;3.92;3.52;;;;;;;27.02;42.64;99544.77;1726541;79;21514;-69
2021/08/20 09:05:56;;;;;;;4.15;3.10;;;;;;;27.05;42.58;99534.68;1760139;79;21096;-69
2021/08/20 09:08:24;;;;;;;3.45;3.15;;;;;;;27.08;42.30;99542.27;1755889;79;21069;-68
2021/08/20 09:10:55;;;;;;;4.42;3.30;;;;;;;27.11;42.37;99545.00;1753658;79;21250;-68
2021/08/20 09:13:23;;;;;;;10.48;9.20;;;;;;;27.13;42.03;99548.27;1759131;80;21103;-67
2021/08/20 09:16:08;;;;;;;6.35;5.25;;;;;;;27.17;41.67;99543.87;1765859;80;21076;-67
2021/08/20 09:18:37;;;;;;;4.55;4.08;;;;;;;27.20;41.42;99543.31;1762682;79;21126;-70
2021/08/20 09:21:04;;;;;;;3.37;3.08;;;;;;;27.23;41.56;99542.73;1775266;79;21145;-69
2021/08/20 09:23:30;;;;;;;3.65;3.20;;;;;;;27.25;41.65;99542.77;1761191;79;21152;-67
2021/08/20 09:25:57;;;;;;;3.58;3.27;;;;;;;27.29;41.24;99538.89;1759234;80;21559;-69
2021/08/20 09:28:28;;;;;;;3.50;3.00;;;;;;;27.33;40.67;99540.52;1771288;80;21485;-67
2021/08/20 09:31:06;;;;;;;4.92;3.65;;;;;;;27.36;40.50;99537.22;1770216;79;21345;-69
2021/08/20 09:33:48;;;;;;;3.42;3.12;;;;;;;27.39;41.27;99538.84;1782022;79;21541;-70
2021/08/20 09:36:19;;;;;;;3.87;3.30;;;;;;;27.43;41.70;99545.91;1772626;79;21039;-70
2021/08/20 09:38:53;;;;;;;3.92;3.37;;;;;;;27.46;42.04;99543.95;1757721;80;21045;-69
2021/08/20 09:41:28;;;;;;;4.33;3.52;;;;;;;27.49;42.14;99548.02;1757816;80;21511;-67
2021/08/20 09:43:56;;;;;;;3.33;3.05;;;;;;;27.51;42.73;99543.12;1764224;80;21033;-66
2021/08/20 09:46:23;;;;;;;3.80;3.50;;;;;;;27.55;43.05;99540.89;1756917;79;21015;-67
2021/08/20 09:49:02;;;;;;;4.53;3.30;;;;;;;27.58;43.30;99551.24;1754546;81;21544;-66
2021/08/20 09:51:36;;;;;;;3.77;3.25;;;;;;;27.60;43.54;99544.95;1748916;80;21015;-68
2021/08/20 09:54:18;;;;;;;3.42;3.12;;;;;;;27.63;43.50;99544.36;1803555;78;21102;-66
2021/08/20 09:56:45;;;;;;;2.80;2.60;;;;;;;27.67;43.35;99545.16;1817321;77;21081;-71
2021/08/20 09:59:12;;;;;;;3.37;3.08;;;;;;;27.70;43.17;99539.95;1795103;78;21064;-68
2021/08/20 10:01:43;;;;;;;3.30;3.00;;;;;;;27.73;43.33;99539.92;1813359;77;21013;-70
2021/08/20 10:04:12;;;;;;;2.83;2.62;;;;;;;27.75;43.26;99546.70;1812846;77;21089;-75
2021/08/20 10:06:41;;;;;;;6.60;2.77;;;;;;;27.78;43.36;99537.16;1781158;78;21095;-67
2021/08/20 10:09:11;;;;;;;3.35;3.05;;;;;;;27.80;43.34;99537.67;1805898;77;21593;-70
2021/08/20 10:11:49;;;;;;;3.72;3.42;;;;;;;27.82;43.12;99539.01;1798312;77;21021;-69
2021/08/20 10:14:17;;;;;;;3.25;2.67;;;;;;;27.85;43.38;99528.89;1788281;77;21508;-67
2021/08/20 10:16:44;;;;;;;4.17;2.80;;;;;;;27.89;43.31;99526.97;1813282;78;21026;-69
2021/08/20 10:19:11;;;;;;;3.35;2.40;;;;;;;27.91;43.08;99531.05;1791600;78;21094;-69
2021/08/20 10:21:40;;;;;;;3.00;2.77;;;;;;;27.95;42.92;99531.27;1796008;78;21072;-68
2021/08/20 10:24:08;;;;;;;3.25;2.67;;;;;;;27.99;42.81;99526.33;1798001;77;21088;-69
2021/08/20 10:26:47;;;;;;;3.33;2.50;;;;;;;28.01;42.83;99528.21;1793653;78;21057;-71
2021/08/20 10:29:13;;;;;;;3.33;2.70;;;;;;;28.05;42.88;99533.91;1791341;78;21034;-70
2021/08/20 10:31:43;;;;;;;3.83;2.87;;;;;;;28.10;42.89;99531.66;1797510;78;21148;-70
2021/08/20 10:34:34;;;;;;;3.83;2.95;;;;;;;28.14;43.04;99525.88;1795464;78;21014;-70
2021/08/20 10:37:25;;;;;;;3.00;2.65;;;;;;;28.16;42.97;99525.88;1788432;78;20986;-69
2021/08/20 10:39:56;;;;;;;3.98;2.50;;;;;;;28.19;43.02;99516.28;1814750;77;21084;-70
2021/08/20 10:42:41;;;;;;;2.58;2.37;;;;;;;28.21;42.92;99508.61;1809972;77;21169;-66
2021/08/20 10:45:11;;;;;;;3.75;3.45;;;;;;;28.23;42.82;99511.30;1804584;77;21162;-70
2021/08/20 10:47:38;;;;;;;4.22;2.80;;;;;;;28.26;42.75;99514.02;1814155;77;21635;-69
2021/08/20 10:50:14;;;;;;;6.97;2.92;;;;;;;28.30;42.76;99516.42;1808522;77;21498;-68
2021/08/20 10:52:50;;;;;;;2.75;2.55;;;;;;;28.33;42.66;99517.19;1814660;77;21134;-68
2021/08/20 10:55:30;;;;;;;3.55;2.95;;;;;;;28.37;42.20;99520.96;1803868;77;21056;-68
2021/08/20 10:58:00;;;;;;;2.87;2.65;;;;;;;28.41;42.43;99525.30;1788742;77;21232;-68
2021/08/20 11:00:30;;;;;;;6.90;3.08;;;;;;;28.43;42.27;99517.09;1804506;78;21564;-68
2021/08/20 11:03:09;;;;;;;3.47;2.67;;;;;;;28.48;42.30;99529.05;1818245;78;21018;-67
2021/08/20 11:05:39;;;;;;;3.02;2.60;;;;;;;28.51;42.28;99527.09;1820502;78;21056;-68
2021/08/20 11:08:32;;;;;;;3.00;2.70;;;;;;;28.53;42.20;99516.70;1803418;78;21080;-67
2021/08/20 11:11:00;;;;;;;5.62;2.40;;;;;;;28.58;42.14;99518.02;1813562;77;21028;-68
2021/08/20 11:13:27;;;;;;;3.15;2.85;;;;;;;28.58;42.00;99515.28;1807275;77;21017;-66
2021/08/20 11:15:55;;;;;;;7.53;2.65;;;;;;;28.59;42.00;99513.63;1804685;78;21048;-70
2021/08/20 11:18:45;;;;;;;3.02;2.37;;;;;;;28.61;41.98;99511.98;1802969;78;21026;-68
2021/08/20 11:21:42;;;;;;;5.25;2.87;;;;;;;28.62;41.93;99506.20;1815951;78;21001;-68
2021/08/20 11:24:18;;;;;;;3.10;2.33;;;;;;;28.63;41.86;99508.39;1815416;78;21180;-68
2021/08/20 11:26:44;;;;;;;2.83;2.52;;;;;;;28.63;41.86;99507.03;1818818;77;21532;-68
2021/08/20 11:29:14;;;;;;;3.35;2.67;;;;;;;28.62;41.86;99504.83;1803143;77;21037;-68
2021/08/20 11:31:42;;;;;;;3.65;2.65;;;;;;;28.63;41.80;99504.30;1813470;77;20978;-68
2021/08/20 11:34:09;;;;;;;3.15;2.85;;;;;;;28.63;41.63;99514.67;1805302;78;21049;-68
2021/08/20 11:36:42;;;;;;;3.35;2.50;;;;;;;28.66;41.35;99506.98;1799769;78;21119;-68
2021/08/20 11:39:06;;;;;;;2.58;2.37;;;;;;;28.68;41.28;99508.88;1810406;77;21619;-68
2021/08/20 11:41:41;;;;;;;2.90;2.67;;;;;;;28.70;41.20;99505.28;1765103;80;21063;-68
2021/08/20 11:44:07;;;;;;;3.08;2.77;;;;;;;28.73;40.68;99510.98;1814617;77;21115;-67